createdAt,value
2023-01-07T00:00:09.792Z,53.94
2023-01-07T00:02:38.082Z,53.88
2023-01-07T00:05:07.347Z,53.97
2023-01-07T00:07:35.608Z,54.01
2023-01-07T00:10:03.929Z,53.98
2023-01-07T00:12:33.536Z,53.85
2023-01-07T00:15:01.801Z,54.08
2023-01-07T00:17:30.051Z,54.13
2023-01-07T00:19:58.237Z,53.99
2023-01-07T00:22:26.482Z,53.93
2023-01-07T00:24:54.716Z,54.11
2023-01-07T00:27:22.945Z,53.99
2023-01-07T00:29:52.538Z,54.09
2023-01-07T00:32:21.041Z,54.06
2023-01-07T00:34:49.247Z,54.24
2023-01-07T00:37:33.992Z,54.31
2023-01-07T00:40:02.251Z,54.37
2023-01-07T00:42:47.993Z,54.75
2023-01-07T00:45:17.832Z,54.54
2023-01-07T00:47:46.099Z,54.50
2023-01-07T00:50:14.323Z,54.73
2023-01-07T00:52:42.550Z,54.48
2023-01-07T00:55:11.701Z,54.81
2023-01-07T00:57:39.902Z,54.73
2023-01-07T01:00:10.555Z,54.71
2023-01-07T01:02:40.699Z,54.90
2023-01-07T01:05:10.364Z,54.78
2023-01-07T01:07:39.178Z,54.80
2023-01-07T01:10:10.506Z,54.75
2023-01-07T01:12:39.327Z,54.91
2023-01-07T01:15:11.884Z,54.90
2023-01-07T01:17:41.921Z,54.88
2023-01-07T01:20:15.098Z,54.79
2023-01-07T01:22:43.663Z,54.73
2023-01-07T01:25:14.988Z,54.63
2023-01-07T01:27:44.024Z,54.94
2023-01-07T01:30:13.230Z,54.80
2023-01-07T01:32:42.827Z,54.72
2023-01-07T01:35:11.279Z,54.76
2023-01-07T01:37:39.567Z,54.65
2023-01-07T01:40:10.502Z,54.84
2023-01-07T01:42:39.059Z,54.87
2023-01-07T01:45:08.960Z,54.79
2023-01-07T01:47:43.769Z,54.62
2023-01-07T01:50:18.380Z,54.53
2023-01-07T01:52:55.027Z,54.59
2023-01-07T01:55:29.994Z,54.54
2023-01-07T01:58:05.899Z,54.50
2023-01-07T02:00:35.396Z,54.75
2023-01-07T02:03:09.680Z,54.65
2023-01-07T02:05:42.330Z,54.68
2023-01-07T02:08:11.346Z,54.73
2023-01-07T02:10:40.037Z,54.70
2023-01-07T02:13:30.382Z,54.74
2023-01-07T02:16:04.634Z,54.75
2023-01-07T02:19:03.126Z,54.54
2023-01-07T02:21:48.519Z,54.83
2023-01-07T02:24:48.591Z,54.76
2023-01-07T02:27:43.546Z,54.67
2023-01-07T02:30:43.536Z,54.82
2023-01-07T02:33:35.538Z,54.81
2023-01-07T02:36:34.026Z,54.75
2023-01-07T02:39:26.188Z,54.88
2023-01-07T02:42:00.423Z,54.59
2023-01-07T02:44:39.136Z,54.57
2023-01-07T02:47:14.883Z,54.56
2023-01-07T02:49:44.463Z,54.50
2023-01-07T02:52:22.232Z,54.55
2023-01-07T02:54:57.197Z,54.40
2023-01-07T02:58:12.346Z,54.49
2023-01-07T03:01:02.457Z,54.64
2023-01-07T03:03:49.512Z,54.73
2023-01-07T03:06:38.224Z,54.65
2023-01-07T03:09:12.558Z,54.65
2023-01-07T03:11:46.677Z,54.50
2023-01-07T03:14:20.486Z,54.68
2023-01-07T03:16:54.483Z,54.63
2023-01-07T03:19:27.867Z,54.53
2023-01-07T03:21:59.627Z,54.54
2023-01-07T03:24:29.641Z,54.52
2023-01-07T03:27:00.101Z,54.55
2023-01-07T03:29:29.424Z,54.57
2023-01-07T03:32:02.788Z,54.58
2023-01-07T03:34:34.817Z,54.58
2023-01-07T03:37:08.125Z,54.47
2023-01-07T03:39:39.892Z,54.48
2023-01-07T03:42:27.205Z,54.49
2023-01-07T03:44:55.915Z,54.50
2023-01-07T03:47:24.511Z,54.55
2023-01-07T03:49:52.789Z,54.68
2023-01-07T03:52:22.389Z,54.40
2023-01-07T03:54:50.622Z,54.55
2023-01-07T03:57:18.849Z,54.45
2023-01-07T03:59:47.069Z,54.50
2023-01-07T04:02:15.549Z,54.45
2023-01-07T04:04:43.876Z,54.44
2023-01-07T04:07:13.659Z,54.42
2023-01-07T04:09:43.318Z,54.44
2023-01-07T04:12:11.644Z,54.50
2023-01-07T04:14:39.836Z,54.44
2023-01-07T04:17:08.150Z,54.41
2023-01-07T04:19:38.559Z,54.28
2023-01-07T04:22:07.178Z,54.44
2023-01-07T04:24:35.510Z,54.36
2023-01-07T04:27:05.303Z,54.46
2023-01-07T04:29:33.581Z,54.48
2023-01-07T04:32:02.104Z,54.50
2023-01-07T04:34:30.356Z,54.38
2023-01-07T04:36:58.601Z,54.33
2023-01-07T04:39:26.880Z,54.37
2023-01-07T04:41:55.150Z,54.46
2023-01-07T04:44:24.777Z,54.39
2023-01-07T04:46:53.032Z,54.41
2023-01-07T04:49:21.252Z,54.32
2023-01-07T04:51:49.486Z,54.43
2023-01-07T04:54:17.759Z,54.44
2023-01-07T04:56:45.969Z,54.41
2023-01-07T04:59:14.249Z,54.44
2023-01-07T05:01:43.909Z,54.39
2023-01-07T05:04:12.320Z,54.42
2023-01-07T05:06:40.606Z,54.35
2023-01-07T05:09:08.915Z,54.52
2023-01-07T05:11:37.199Z,54.45
2023-01-07T05:14:05.507Z,54.42
2023-01-07T05:16:33.768Z,54.43
2023-01-07T05:19:03.435Z,54.53
2023-01-07T05:21:31.684Z,54.67
2023-01-07T05:23:59.912Z,54.65
2023-01-07T05:26:28.192Z,54.67
2023-01-07T05:28:56.427Z,54.60
2023-01-07T05:31:24.728Z,54.89
2023-01-07T05:33:52.988Z,54.58
2023-01-07T05:36:22.736Z,54.62
2023-01-07T05:38:50.973Z,54.54
2023-01-07T05:41:19.225Z,54.63
2023-01-07T05:43:47.492Z,54.64
2023-01-07T05:46:15.794Z,54.73
2023-01-07T05:48:44.090Z,54.74
2023-01-07T05:51:12.449Z,54.90
2023-01-07T05:53:42.052Z,54.83
2023-01-07T05:56:10.344Z,54.97
2023-01-07T05:58:38.631Z,54.80
2023-01-07T06:01:06.999Z,54.97
2023-01-07T06:03:35.298Z,54.93
2023-01-07T06:06:07.251Z,55.01
2023-01-07T06:08:35.958Z,54.99
2023-01-07T06:11:07.014Z,54.88
2023-01-07T06:13:36.122Z,54.91
2023-01-07T06:16:06.198Z,54.86
2023-01-07T06:18:34.774Z,54.90
2023-01-07T06:21:03.576Z,54.79
2023-01-07T06:23:31.999Z,54.91
2023-01-07T06:26:00.562Z,54.83
2023-01-07T06:28:30.468Z,54.82
2023-01-07T06:30:58.755Z,54.85
2023-01-07T06:33:27.141Z,54.85
2023-01-07T06:35:55.383Z,54.66
2023-01-07T06:38:23.674Z,54.62
2023-01-07T06:40:51.929Z,54.71
2023-01-07T06:43:20.176Z,54.67
2023-01-07T06:45:49.913Z,54.76
2023-01-07T06:48:18.397Z,54.83
2023-01-07T06:50:46.864Z,54.83
2023-01-07T06:53:15.140Z,55.20
2023-01-07T06:55:49.018Z,54.88
2023-01-07T06:58:17.650Z,54.92
2023-01-07T07:00:46.147Z,54.88
2023-01-07T07:03:15.821Z,54.86
2023-01-07T07:05:44.134Z,54.87
2023-01-07T07:08:12.427Z,54.76
2023-01-07T07:10:40.763Z,54.64
2023-01-07T07:13:09.017Z,54.87
2023-01-07T07:15:37.591Z,54.69
2023-01-07T07:18:05.924Z,54.65
2023-01-07T07:20:35.983Z,54.66
2023-01-07T07:23:04.823Z,54.59
2023-01-07T07:25:33.053Z,54.64
2023-01-07T07:28:01.293Z,54.71
2023-01-07T07:30:47.371Z,54.60
2023-01-07T07:33:19.265Z,54.56
2023-01-07T07:35:49.924Z,54.79
2023-01-07T07:38:19.126Z,54.75
2023-01-07T07:40:47.469Z,54.82
2023-01-07T07:43:16.888Z,54.71
2023-01-07T07:45:45.470Z,54.66
2023-01-07T07:48:16.449Z,54.80
2023-01-07T07:50:44.837Z,54.60
2023-01-07T07:53:15.232Z,54.64
2023-01-07T07:55:43.696Z,54.62
2023-01-07T07:58:11.960Z,54.58
2023-01-07T08:00:40.232Z,54.59
2023-01-07T08:03:09.022Z,54.54
2023-01-07T08:05:37.483Z,54.53
2023-01-07T08:08:06.380Z,54.38
2023-01-07T08:10:36.279Z,54.51
2023-01-07T08:13:04.555Z,54.34
2023-01-07T08:15:33.167Z,54.33
2023-01-07T08:18:03.016Z,54.09
2023-01-07T08:20:32.291Z,54.20
2023-01-07T08:23:01.415Z,54.30
2023-01-07T08:25:30.574Z,54.25
2023-01-07T08:28:02.217Z,54.09
2023-01-07T08:30:31.793Z,54.16
2023-01-07T08:33:00.476Z,54.23
2023-01-07T08:35:28.722Z,54.16
2023-01-07T08:38:03.652Z,54.24
2023-01-07T08:40:32.162Z,54.19
2023-01-07T08:43:03.477Z,54.10
2023-01-07T08:45:32.965Z,54.04
2023-01-07T08:48:01.355Z,54.10
2023-01-07T08:50:32.465Z,54.16
2023-01-07T08:53:01.178Z,54.41
2023-01-07T08:55:29.510Z,54.40
2023-01-07T08:57:58.292Z,54.47
2023-01-07T09:00:28.582Z,54.28
2023-01-07T09:02:56.847Z,54.20
2023-01-07T09:05:25.614Z,54.27
2023-01-07T09:07:54.398Z,54.42
2023-01-07T09:10:23.002Z,54.49
2023-01-07T09:12:51.610Z,54.62
2023-01-07T09:15:20.113Z,54.56
2023-01-07T09:17:49.771Z,54.69
2023-01-07T09:20:18.321Z,54.53
2023-01-07T09:22:46.840Z,54.47
2023-01-07T09:25:15.419Z,54.16
2023-01-07T09:27:43.670Z,54.23
2023-01-07T09:30:13.082Z,54.11
2023-01-07T09:32:43.040Z,54.19
2023-01-07T09:35:13.821Z,54.40
2023-01-07T09:37:42.378Z,54.38
2023-01-07T09:40:22.491Z,54.38
2023-01-07T09:42:59.292Z,54.44
2023-01-07T09:45:32.125Z,54.76
2023-01-07T09:48:04.752Z,54.97
2023-01-07T09:50:46.238Z,55.06
2023-01-07T09:53:20.769Z,55.28
2023-01-07T09:56:10.826Z,54.86
2023-01-07T09:58:43.204Z,54.68
2023-01-07T10:01:22.983Z,54.11
2023-01-07T10:04:04.193Z,53.88
2023-01-07T10:06:44.285Z,53.23
2023-01-07T10:09:27.316Z,52.94
2023-01-07T10:12:03.808Z,52.67
2023-01-07T10:15:18.281Z,52.34
2023-01-07T10:18:06.090Z,51.71
2023-01-07T10:20:46.201Z,51.20
2023-01-07T10:23:21.705Z,50.43
2023-01-07T10:25:52.279Z,49.67
2023-01-07T10:28:29.145Z,48.96
2023-01-07T10:30:57.688Z,47.94
2023-01-07T10:33:29.409Z,47.70
2023-01-07T10:36:06.952Z,47.18
2023-01-07T10:38:42.325Z,46.00
2023-01-07T10:41:17.779Z,46.21
2023-01-07T10:44:05.496Z,45.86
2023-01-07T10:46:49.982Z,46.05
2023-01-07T10:49:39.747Z,45.89
2023-01-07T10:52:34.760Z,45.63
2023-01-07T10:55:35.996Z,45.72
2023-01-07T10:58:04.712Z,45.05
2023-01-07T11:00:33.676Z,45.04
2023-01-07T11:03:02.460Z,44.50
2023-01-07T11:05:38.445Z,44.41
2023-01-07T11:08:14.067Z,44.41
2023-01-07T11:10:44.125Z,44.14
2023-01-07T11:13:17.756Z,43.71
2023-01-07T11:15:51.627Z,43.22
2023-01-07T11:18:26.594Z,43.62
2023-01-07T11:20:57.151Z,43.65
2023-01-07T11:23:33.272Z,44.30
2023-01-07T11:26:16.900Z,44.58
2023-01-07T11:28:53.337Z,44.73
2023-01-07T11:31:22.930Z,44.73
2023-01-07T11:34:02.157Z,44.61
2023-01-07T11:36:42.222Z,44.47
2023-01-07T11:39:13.033Z,44.25
2023-01-07T11:41:54.558Z,44.14
2023-01-07T11:44:23.151Z,43.89
2023-01-07T11:46:51.753Z,44.22
2023-01-07T11:49:27.131Z,44.35
2023-01-07T11:51:56.236Z,44.44
2023-01-07T11:54:27.146Z,44.39
2023-01-07T11:57:13.520Z,44.38
2023-01-07T11:59:41.900Z,44.27
2023-01-07T12:02:26.732Z,44.41
2023-01-07T12:05:23.189Z,44.31
2023-01-07T12:07:52.898Z,44.28
2023-01-07T12:10:31.726Z,44.30
2023-01-07T12:13:01.764Z,44.05
2023-01-07T12:15:34.926Z,44.18
2023-01-07T12:18:34.091Z,44.01
2023-01-07T12:21:33.647Z,44.33
2023-01-07T12:24:48.114Z,44.53
2023-01-07T12:27:32.358Z,44.54
2023-01-07T12:30:20.335Z,44.90
2023-01-07T12:33:04.356Z,44.74
2023-01-07T12:35:38.218Z,44.65
2023-01-07T12:38:13.006Z,44.76
2023-01-07T12:40:45.623Z,44.64
2023-01-07T12:43:19.744Z,45.01
2023-01-07T12:45:53.648Z,45.42
2023-01-07T12:48:30.745Z,45.57
2023-01-07T12:51:03.834Z,45.61
2023-01-07T12:53:41.348Z,45.76
2023-01-07T12:56:17.065Z,45.73
2023-01-07T12:58:52.659Z,46.15
2023-01-07T13:01:29.691Z,45.86
2023-01-07T13:04:16.147Z,46.09
2023-01-07T13:06:51.545Z,46.04
2023-01-07T13:09:28.818Z,46.07
2023-01-07T13:12:42.437Z,46.45
2023-01-07T13:15:21.825Z,46.45
2023-01-07T13:17:53.744Z,46.44
2023-01-07T13:20:54.341Z,46.38
2023-01-07T13:23:30.092Z,46.71
2023-01-07T13:26:25.505Z,46.77
2023-01-07T13:29:28.837Z,46.92
2023-01-07T13:32:16.317Z,47.00
2023-01-07T13:35:04.898Z,47.11
2023-01-07T13:38:03.044Z,47.16
2023-01-07T13:41:14.197Z,47.21
2023-01-07T13:44:09.959Z,47.08
2023-01-07T13:46:41.607Z,47.11
2023-01-07T13:49:26.673Z,47.25
2023-01-07T13:51:55.960Z,47.37
2023-01-07T13:54:59.265Z,47.30
2023-01-07T13:57:45.574Z,47.36
2023-01-07T14:00:48.105Z,47.45
2023-01-07T14:03:41.645Z,47.54
2023-01-07T14:06:39.107Z,47.30
2023-01-07T14:09:32.240Z,47.48
2023-01-07T14:12:46.344Z,47.51
2023-01-07T14:15:54.770Z,47.75
2023-01-07T14:19:03.396Z,47.85
2023-01-07T14:22:07.487Z,47.96
2023-01-07T14:25:20.282Z,47.82
2023-01-07T14:28:17.078Z,47.95
2023-01-07T14:30:48.830Z,47.93
2023-01-07T14:33:22.849Z,47.91
2023-01-07T14:35:57.989Z,47.95
2023-01-07T14:38:58.004Z,47.93
2023-01-07T14:41:27.068Z,47.92
2023-01-07T14:44:29.172Z,47.93
2023-01-07T14:46:59.004Z,47.97
2023-01-07T14:49:52.862Z,47.96
2023-01-07T14:53:05.376Z,47.98
2023-01-07T14:56:01.963Z,47.91
2023-01-07T14:58:55.699Z,47.95
2023-01-07T15:01:43.744Z,47.77
2023-01-07T15:05:26.821Z,47.78
2023-01-07T15:08:16.049Z,47.77
2023-01-07T15:11:02.848Z,47.96
2023-01-07T15:13:51.372Z,47.80
2023-01-07T15:16:23.038Z,47.90
2023-01-07T15:18:53.816Z,47.82
2023-01-07T15:21:34.691Z,48.14
2023-01-07T15:24:13.882Z,47.78
2023-01-07T15:26:50.861Z,48.02
2023-01-07T15:29:28.006Z,47.74
2023-01-07T15:32:05.487Z,47.76
2023-01-07T15:34:34.460Z,48.04
2023-01-07T15:37:06.796Z,48.05
2023-01-07T15:39:41.372Z,48.10
2023-01-07T15:42:17.256Z,47.92
2023-01-07T15:44:49.303Z,48.10
2023-01-07T15:47:36.504Z,48.10
2023-01-07T15:50:27.688Z,48.26
2023-01-07T15:52:59.847Z,48.60
2023-01-07T15:55:32.152Z,48.26
2023-01-07T15:58:04.958Z,48.37
2023-01-07T16:00:34.898Z,48.16
2023-01-07T16:03:04.663Z,48.04
2023-01-07T16:05:33.137Z,48.10
2023-01-07T16:08:02.668Z,48.14
2023-01-07T16:10:35.179Z,48.24
2023-01-07T16:13:06.294Z,48.18
2023-01-07T16:15:37.101Z,48.29
2023-01-07T16:18:18.956Z,48.08
2023-01-07T16:20:55.935Z,48.28
2023-01-07T16:23:26.945Z,48.22
2023-01-07T16:26:03.451Z,48.18
2023-01-07T16:28:35.231Z,48.25
2023-01-07T16:31:07.278Z,48.33
2023-01-07T16:33:37.721Z,48.34
2023-01-07T16:36:10.485Z,48.40
2023-01-07T16:38:39.589Z,48.53
2023-01-07T16:41:19.578Z,48.60
2023-01-07T16:43:48.116Z,48.72
2023-01-07T16:46:28.333Z,49.13
2023-01-07T16:49:23.373Z,48.99
2023-01-07T16:51:53.971Z,49.03
2023-01-07T16:54:31.322Z,48.84
2023-01-07T16:57:03.155Z,49.23
2023-01-07T16:59:34.344Z,49.16
2023-01-07T17:02:13.294Z,49.35
2023-01-07T17:04:41.783Z,49.37
2023-01-07T17:07:20.945Z,49.31
2023-01-07T17:09:49.968Z,49.37
2023-01-07T17:12:38.777Z,49.47
2023-01-07T17:15:34.795Z,49.58
2023-01-07T17:18:29.942Z,49.75
2023-01-07T17:21:00.143Z,49.76
2023-01-07T17:23:43.224Z,49.84
2023-01-07T17:26:23.031Z,50.00
2023-01-07T17:28:55.637Z,50.06
2023-01-07T17:31:24.752Z,50.15
2023-01-07T17:33:54.168Z,50.39
2023-01-07T17:36:25.249Z,50.13
2023-01-07T17:38:54.123Z,50.51
2023-01-07T17:41:41.756Z,50.60
2023-01-07T17:44:14.425Z,50.66
2023-01-07T17:46:43.879Z,51.13
2023-01-07T17:49:12.821Z,51.30
2023-01-07T17:51:44.657Z,51.13
2023-01-07T17:54:21.012Z,51.21
2023-01-07T17:56:50.077Z,51.24
2023-01-07T17:59:22.553Z,51.31
2023-01-07T18:01:51.798Z,51.14
2023-01-07T18:04:21.467Z,51.00
2023-01-07T18:06:49.760Z,50.97
2023-01-07T18:09:18.014Z,51.01
2023-01-07T18:12:05.201Z,51.12
2023-01-07T18:14:34.868Z,50.87
2023-01-07T18:17:03.149Z,50.82
2023-01-07T18:19:31.469Z,50.84
2023-01-07T18:21:59.728Z,50.63
2023-01-07T18:24:27.955Z,50.54
2023-01-07T18:26:56.748Z,50.53
2023-01-07T18:29:25.219Z,50.71
2023-01-07T18:31:54.987Z,50.57
2023-01-07T18:34:23.252Z,50.64
2023-01-07T18:36:51.497Z,50.86
2023-01-07T18:39:20.549Z,51.13
2023-01-07T18:41:50.231Z,51.43
2023-01-07T18:44:18.875Z,51.68
2023-01-07T18:46:47.258Z,51.88
2023-01-07T18:49:17.121Z,52.18
2023-01-07T18:51:47.904Z,52.36
2023-01-07T18:54:16.729Z,52.49
2023-01-07T18:56:46.233Z,52.50
2023-01-07T18:59:14.815Z,52.69
2023-01-07T19:01:43.381Z,52.75
2023-01-07T19:04:11.868Z,52.78
2023-01-07T19:06:41.569Z,52.81
2023-01-07T19:09:09.815Z,52.61
2023-01-07T19:11:38.632Z,52.75
2023-01-07T19:14:06.912Z,52.79
2023-01-07T19:16:36.262Z,52.94
2023-01-07T19:19:05.927Z,52.96
2023-01-07T19:21:34.193Z,53.14
2023-01-07T19:24:04.716Z,53.19
2023-01-07T19:26:33.862Z,53.33
2023-01-07T19:29:03.312Z,53.04
2023-01-07T19:31:31.739Z,53.20
2023-01-07T19:34:00.046Z,52.88
2023-01-07T19:36:28.343Z,52.70
2023-01-07T19:38:56.602Z,52.56
2023-01-07T19:41:26.477Z,52.63
2023-01-07T19:44:00.216Z,52.44
2023-01-07T19:46:29.280Z,52.58
2023-01-07T19:48:57.492Z,52.40
2023-01-07T19:51:25.730Z,52.37
2023-01-07T19:53:54.016Z,51.99
2023-01-07T19:56:22.273Z,52.05
2023-01-07T19:58:54.360Z,52.14
2023-01-07T20:01:26.392Z,51.88
2023-01-07T20:03:55.803Z,52.16
2023-01-07T20:06:27.390Z,51.75
2023-01-07T20:08:56.621Z,51.74
2023-01-07T20:11:25.548Z,51.57
2023-01-07T20:13:55.177Z,51.62
2023-01-07T20:16:25.082Z,51.73
2023-01-07T20:18:55.587Z,51.71
2023-01-07T20:21:26.745Z,51.62
2023-01-07T20:23:55.919Z,51.74
2023-01-07T20:26:27.405Z,51.72
2023-01-07T20:28:57.740Z,51.67
2023-01-07T20:31:28.651Z,51.69
2023-01-07T20:33:57.596Z,51.38
2023-01-07T20:36:28.411Z,51.58
2023-01-07T20:38:56.862Z,51.37
2023-01-07T20:41:28.930Z,51.50
2023-01-07T20:44:01.219Z,51.67
2023-01-07T20:46:31.173Z,51.56
2023-01-07T20:48:59.946Z,51.57
2023-01-07T20:51:28.386Z,51.69
2023-01-07T20:53:56.732Z,51.67
2023-01-07T20:56:26.235Z,51.63
2023-01-07T20:58:57.340Z,51.39
2023-01-07T21:01:27.156Z,51.42
2023-01-07T21:03:55.573Z,51.55
2023-01-07T21:06:24.063Z,51.36
2023-01-07T21:08:52.526Z,51.61
2023-01-07T21:11:23.221Z,51.69
2023-01-07T21:13:52.617Z,51.56
2023-01-07T21:16:21.074Z,51.63
2023-01-07T21:18:50.820Z,51.48
2023-01-07T21:21:23.957Z,51.41
2023-01-07T21:23:52.636Z,51.52
2023-01-07T21:26:21.498Z,51.91
2023-01-07T21:28:49.782Z,51.91
2023-01-07T21:31:18.546Z,51.74
2023-01-07T21:33:46.996Z,52.01
2023-01-07T21:36:19.494Z,52.06
2023-01-07T21:38:48.361Z,51.80
2023-01-07T21:41:17.962Z,51.85
2023-01-07T21:43:46.616Z,51.77
2023-01-07T21:46:15.321Z,51.74
2023-01-07T21:48:47.074Z,51.72
2023-01-07T21:51:20.108Z,51.82
2023-01-07T21:53:48.403Z,51.67
2023-01-07T21:56:18.256Z,51.93
2023-01-07T21:58:47.273Z,51.93
2023-01-07T22:01:17.421Z,51.92
2023-01-07T22:03:48.690Z,51.80
2023-01-07T22:06:21.753Z,51.94
2023-01-07T22:08:55.910Z,51.80
2023-01-07T22:11:24.690Z,51.92
2023-01-07T22:13:53.872Z,51.66
2023-01-07T22:16:23.761Z,51.66
2023-01-07T22:18:52.552Z,51.98
2023-01-07T22:21:22.381Z,51.89
2023-01-07T22:23:50.849Z,51.68
2023-01-07T22:26:21.491Z,52.06
2023-01-07T22:28:54.535Z,51.90
2023-01-07T22:31:25.478Z,51.81
2023-01-07T22:33:54.653Z,51.62
2023-01-07T22:36:30.670Z,51.83
2023-01-07T22:39:02.754Z,51.87
2023-01-07T22:41:33.271Z,51.97
2023-01-07T22:44:05.172Z,52.01
2023-01-07T22:46:34.699Z,51.81
2023-01-07T22:49:03.322Z,52.02
2023-01-07T22:51:38.885Z,51.84
2023-01-07T22:54:07.956Z,52.09
2023-01-07T22:56:36.546Z,52.08
2023-01-07T22:59:05.215Z,51.87
2023-01-07T23:01:33.707Z,52.12
2023-01-07T23:04:02.096Z,52.08
2023-01-07T23:06:32.009Z,51.95
2023-01-07T23:09:00.333Z,52.06
2023-01-07T23:11:45.944Z,52.06
2023-01-07T23:14:14.635Z,52.01
2023-01-07T23:16:43.133Z,51.96
2023-01-07T23:19:11.742Z,52.00
2023-01-07T23:21:43.500Z,51.83
2023-01-07T23:24:13.489Z,51.94
2023-01-07T23:26:42.566Z,52.14
2023-01-07T23:29:10.956Z,51.95
2023-01-07T23:31:39.403Z,52.22
2023-01-07T23:34:08.627Z,51.83
2023-01-07T23:36:37.742Z,52.20
2023-01-07T23:39:08.136Z,51.89
2023-01-07T23:41:36.586Z,52.14
2023-01-07T23:44:05.225Z,52.27
2023-01-07T23:46:34.175Z,52.00
2023-01-07T23:49:02.541Z,51.95
2023-01-07T23:51:30.833Z,52.19
2023-01-07T23:53:59.135Z,52.01
2023-01-07T23:56:28.789Z,52.12
2023-01-07T23:58:57.084Z,52.22
